Time;durP1;ratioP1;P1;durP2;ratioP2;P2;SDS_P1;SDS_P2;PMS_P1;PMS_P2;Temp;Humidity;BMP_temperature;BMP_pressure;BME280_temperature;BME280_humidity;BME280_pressure;Samples;Min_cycle;Max_cycle;Signal;HPM_P1;HPM_P2
2022/03/11 00:01:40;;;;;;;8.25;4.88;;;;;;;0.13;75.84;100302.38;10453541;28;20138;-79
2022/03/11 00:06:41;;;;;;;8.85;5.25;;;;;;;-0.63;76.36;100172.50;10465198;28;20049;-79
2022/03/11 00:11:42;;;;;;;6.63;4.78;;;;;;;0.13;76.76;100307.59;10453290;28;20061;-79
2022/03/11 00:16:43;;;;;;;8.38;4.95;;;;;;;0.08;76.78;100320.09;10453618;28;20037;-79
2022/03/11 00:21:43;;;;;;;7.55;5.28;;;;;;;-0.13;77.55;100294.47;10452828;28;20091;-79
2022/03/11 00:26:44;;;;;;;8.13;5.60;;;;;;;0.13;77.96;100321.47;10454085;28;20608;-79
2022/03/11 00:31:45;;;;;;;8.00;5.45;;;;;;;0.10;77.73;100307.78;10461739;28;20033;-79
2022/03/11 00:36:46;;;;;;;11.38;5.80;;;;;;;0.11;78.26;100330.34;10476358;28;20129;-79
2022/03/11 00:41:47;;;;;;;8.52;5.53;;;;;;;0.07;78.69;100334.09;10460573;28;20041;-79
2022/03/11 00:46:47;;;;;;;10.18;5.40;;;;;;;0.01;78.11;100314.47;10459899;28;20045;-79
2022/03/11 00:51:48;;;;;;;9.35;5.43;;;;;;;-0.40;78.56;100257.94;10460519;28;20040;-79
2022/03/11 00:56:49;;;;;;;8.98;5.60;;;;;;;-0.15;79.17;100324.22;10459073;28;20131;-79
2022/03/11 01:01:50;;;;;;;10.40;5.75;;;;;;;-0.89;79.30;100255.88;10459240;28;20436;-79
2022/03/11 01:06:51;;;;;;;11.13;4.78;;;;;;;-0.70;80.09;100303.34;10459325;28;20033;-80
2022/03/11 01:11:51;;;;;;;9.93;5.55;;;;;;;-0.64;81.21;100311.72;10459589;28;20151;-79
2022/03/11 01:16:52;;;;;;;11.05;6.32;;;;;;;-1.59;82.40;100164.69;10460412;28;20056;-79
2022/03/11 01:21:53;;;;;;;6.95;4.32;;;;;;;-2.84;84.13;99968.47;10459078;28;20492;-79
2022/03/11 01:26:54;;;;;;;10.40;6.88;;;;;;;-1.25;84.54;100261.63;10458970;28;20037;-79
2022/03/11 01:31:56;;;;;;;8.93;5.88;;;;;;;-0.87;87.33;100352.28;10458269;28;20049;-78
2022/03/11 01:36:56;;;;;;;12.10;7.50;;;;;;;-1.48;86.69;100266.47;10458037;28;20148;-79
2022/03/11 01:41:57;;;;;;;12.45;7.68;;;;;;;-2.88;87.12;100037.13;10457483;28;20123;-79
2022/03/11 01:46:58;;;;;;;14.15;8.50;;;;;;;-1.66;87.13;100244.97;10458261;28;20040;-79
2022/03/11 01:51:59;;;;;;;14.15;8.95;;;;;;;-1.15;86.49;100333.94;10457794;28;20041;-79
2022/03/11 01:57:00;;;;;;;11.93;7.50;;;;;;;-2.32;86.86;100152.59;10457742;28;20127;-79
2022/03/11 02:02:01;;;;;;;8.68;6.80;;;;;;;-2.00;88.02;100204.50;10457272;28;20087;-79
2022/03/11 02:07:02;;;;;;;11.07;6.70;;;;;;;-1.15;89.74;100360.00;10472228;28;20041;-79
2022/03/11 02:12:03;;;;;;;13.82;8.98;;;;;;;-1.15;88.62;100367.00;10455842;28;20080;-79
2022/03/11 02:17:04;;;;;;;13.68;8.70;;;;;;;-1.78;89.18;100252.69;10457002;28;20052;-79
2022/03/11 02:22:06;;;;;;;12.23;7.70;;;;;;;-1.47;89.33;100315.03;10457553;28;20507;-79
2022/03/11 02:27:07;;;;;;;13.20;8.80;;;;;;;-2.11;89.25;100197.31;10456071;28;20425;-79
2022/03/11 02:32:09;;;;;;;14.05;8.90;;;;;;;-1.68;88.78;100235.56;10455828;28;20047;-79
2022/03/11 02:37:09;;;;;;;18.77;11.20;;;;;;;-1.06;88.57;100353.41;10455517;28;20047;-80
2022/03/11 02:42:10;;;;;;;21.50;12.60;;;;;;;-0.98;88.70;100361.59;10455496;28;20056;-78
2022/03/11 02:47:11;;;;;;;22.55;13.57;;;;;;;-1.08;88.60;100355.25;10470839;28;20507;-78
2022/03/11 02:52:12;;;;;;;26.80;14.88;;;;;;;-1.24;89.27;100349.31;10473189;28;20072;-79
2022/03/11 02:57:13;;;;;;;24.80;14.27;;;;;;;-1.44;89.89;100348.72;10471959;28;20037;-78
2022/03/11 03:02:14;;;;;;;22.05;11.18;;;;;;;-1.38;90.04;100356.19;10469874;28;20122;-78
2022/03/11 03:07:15;;;;;;;27.08;16.55;;;;;;;-2.48;90.23;100183.03;10472654;28;20076;-78
2022/03/11 03:12:15;;;;;;;21.90;12.05;;;;;;;-2.38;90.46;100189.38;10471684;28;20407;-80
2022/03/11 03:17:18;;;;;;;21.20;14.35;;;;;;;-1.47;89.74;100337.66;10468658;28;20120;-79
2022/03/11 03:22:19;;;;;;;22.90;13.27;;;;;;;-1.57;89.60;100311.31;10474825;28;20048;-78
2022/03/11 03:27:20;;;;;;;25.92;14.68;;;;;;;-2.53;88.94;100159.06;10484522;28;20045;-80
2022/03/11 03:32:21;;;;;;;22.45;13.13;;;;;;;-1.56;89.44;100305.16;10488267;28;20076;-79
2022/03/11 03:37:21;;;;;;;28.83;14.32;;;;;;;-1.34;89.56;100338.59;10489287;28;20044;-80
2022/03/11 03:42:22;;;;;;;24.75;14.90;;;;;;;-2.58;88.86;100124.66;10489209;28;20736;-80
2022/03/11 03:47:23;;;;;;;24.77;14.05;;;;;;;-1.43;88.49;100307.91;10466705;28;20062;-76
2022/03/11 03:52:24;;;;;;;30.00;16.10;;;;;;;-1.58;88.31;100298.41;10489543;28;20041;-73
2022/03/11 03:57:27;;;;;;;23.42;14.45;;;;;;;-1.88;89.10;100227.22;10492462;28;20045;-75
2022/03/11 04:02:28;;;;;;;24.00;13.47;;;;;;;-1.66;87.97;100262.38;10469971;28;20036;-80
2022/03/11 04:07:29;;;;;;;23.15;13.18;;;;;;;-1.28;88.51;100324.38;10460192;28;20044;-79
2022/03/11 04:12:32;;;;;;;25.98;14.13;;;;;;;-1.27;88.75;100333.84;10462363;28;20061;-78
2022/03/11 04:17:33;;;;;;;18.92;11.80;;;;;;;-1.06;88.13;100363.00;10461603;28;20040;-78
2022/03/11 04:22:40;;;;;;;21.88;11.50;;;;;;;-1.36;87.46;100303.97;10461692;28;20442;-78
2022/03/11 04:27:41;;;;;;;19.92;10.75;;;;;;;-1.21;87.90;100323.88;10460595;28;20131;-79
2022/03/11 04:32:42;;;;;;;20.27;12.52;;;;;;;-2.09;87.05;100174.66;10470217;28;20527;-78
2022/03/11 04:37:43;;;;;;;19.45;10.30;;;;;;;-1.89;86.93;100206.44;10474225;28;20060;-79
2022/03/11 04:42:43;;;;;;;22.85;12.93;;;;;;;-1.16;87.48;100347.09;10494172;28;20119;-73
2022/03/11 04:47:48;;;;;;;16.10;9.13;;;;;;;-1.22;87.11;100339.63;10516879;28;20048;-75
2022/03/11 04:52:49;;;;;;;19.50;10.85;;;;;;;-1.36;87.40;100343.06;10468250;28;20033;-77
2022/03/11 04:57:50;;;;;;;20.75;11.80;;;;;;;-2.18;86.99;100206.44;10460684;28;20427;-77
2022/03/11 05:02:51;;;;;;;21.85;12.10;;;;;;;-1.73;87.60;100287.13;10460813;28;20040;-77
2022/03/11 05:07:52;;;;;;;19.55;11.65;;;;;;;-1.18;87.33;100398.47;10460427;28;20068;-77
2022/03/11 05:12:53;;;;;;;14.50;7.97;;;;;;;-1.18;87.31;100367.19;10458872;28;20092;-77
2022/03/11 05:17:55;;;;;;;17.98;11.48;;;;;;;-2.63;86.62;100126.69;10458492;28;20543;-79
2022/03/11 05:22:56;;;;;;;17.88;10.35;;;;;;;-1.92;87.04;100256.94;10459519;28;20085;-77
2022/03/11 05:27:57;;;;;;;19.02;10.93;;;;;;;-1.00;86.56;100399.97;10458593;28;20075;-77
2022/03/11 05:32:57;;;;;;;19.08;11.68;;;;;;;-0.92;86.96;100394.28;10458233;28;20143;-77
2022/03/11 05:37:59;;;;;;;19.55;11.85;;;;;;;-1.15;86.39;100353.97;10458034;28;20045;-77
2022/03/11 05:42:59;;;;;;;17.75;9.80;;;;;;;-1.25;86.19;100340.66;10457675;28;20091;-77
2022/03/11 05:48:00;;;;;;;22.17;11.98;;;;;;;-1.59;86.58;100294.09;10457769;28;20032;-77
2022/03/11 05:53:01;;;;;;;19.85;12.48;;;;;;;-1.36;87.08;100324.81;10457974;28;20041;-77
2022/03/11 05:58:02;;;;;;;16.98;11.13;;;;;;;-2.39;85.61;100125.28;10457211;28;20083;-77
2022/03/11 06:03:03;;;;;;;20.10;8.77;;;;;;;-0.65;85.00;100385.72;10457160;28;20044;-77
2022/03/11 06:08:04;;;;;;;23.63;13.23;;;;;;;-0.65;85.73;100396.16;10457567;28;20037;-77
2022/03/11 06:13:05;;;;;;;14.70;7.93;;;;;;;-1.52;85.39;100235.50;10456407;28;20143;-77
2022/03/11 06:18:05;;;;;;;31.58;14.48;;;;;;;-0.58;85.48;100381.78;10456398;28;20139;-77
2022/03/11 06:23:06;;;;;;;25.27;13.60;;;;;;;-0.49;84.68;100379.41;10457104;28;20049;-76
2022/03/11 06:28:07;;;;;;;20.80;12.82;;;;;;;-0.51;84.38;100368.25;10456703;28;20083;-78
2022/03/11 06:33:09;;;;;;;17.02;11.27;;;;;;;-1.11;83.86;100226.88;10456403;28;20045;-78
2022/03/11 06:38:10;;;;;;;21.17;13.23;;;;;;;-0.80;84.50;100273.56;10455875;28;20443;-78
2022/03/11 06:43:11;;;;;;;21.63;13.60;;;;;;;-0.44;83.23;100308.69;10455630;28;20059;-79
2022/03/11 06:48:12;;;;;;;28.33;16.23;;;;;;;-0.40;82.61;100264.94;10456049;28;20041;-78
2022/03/11 06:53:13;;;;;;;22.20;14.15;;;;;;;0.01;82.51;100329.28;10455034;28;20464;-78
2022/03/11 06:58:13;;;;;;;20.30;12.80;;;;;;;0.13;82.62;100360.66;10455747;28;20181;-78
2022/03/11 07:03:14;;;;;;;23.52;13.52;;;;;;;-0.34;82.17;100267.16;10455249;28;20443;-78
2022/03/11 07:08:15;;;;;;;19.30;11.23;;;;;;;0.01;81.16;100342.34;10455230;28;20501;-78
2022/03/11 07:13:16;;;;;;;23.13;11.35;;;;;;;0.21;81.13;100345.31;10455064;28;20061;-78
2022/03/11 07:18:17;;;;;;;25.02;14.43;;;;;;;-0.37;81.46;100236.03;10455581;28;20440;-78
2022/03/11 07:23:19;;;;;;;25.20;13.25;;;;;;;0.09;81.60;100324.38;10454166;28;20394;-78
2022/03/11 07:28:20;;;;;;;21.88;11.88;;;;;;;0.28;80.65;100309.16;10454316;28;20045;-78
2022/03/11 07:33:21;;;;;;;19.55;11.43;;;;;;;-0.39;79.41;100217.88;10454929;28;20418;-79
2022/03/11 07:38:24;;;;;;;19.95;10.77;;;;;;;0.32;79.25;100349.00;10453590;28;20040;-78
2022/03/11 07:43:26;;;;;;;20.15;12.63;;;;;;;0.33;81.09;100353.25;10454287;28;20086;-78
2022/03/11 07:48:27;;;;;;;18.27;9.80;;;;;;;0.48;80.17;100340.94;10454878;28;20049;-80
2022/03/11 07:53:28;;;;;;;21.88;12.13;;;;;;;0.53;80.67;100333.63;10454659;28;20037;-78
2022/03/11 07:58:28;;;;;;;16.73;9.35;;;;;;;0.48;78.92;100327.88;10453515;28;20084;-78
2022/03/11 08:03:29;;;;;;;16.90;11.57;;;;;;;0.27;79.27;100319.72;10453095;28;20056;-77
2022/03/11 08:08:31;;;;;;;22.83;13.63;;;;;;;-0.73;79.75;100169.66;10453877;28;20044;-79
2022/03/11 08:13:33;;;;;;;20.58;11.23;;;;;;;0.27;79.12;100324.94;10453214;28;20535;-77
2022/03/11 08:18:35;;;;;;;19.80;12.02;;;;;;;-0.49;78.98;100165.44;10452954;28;20044;-78
2022/03/11 08:23:36;;;;;;;20.83;11.65;;;;;;;-0.80;78.79;100105.81;10452956;28;20040;-78
2022/03/11 08:28:37;;;;;;;17.95;11.07;;;;;;;0.48;78.02;100326.13;10453433;28;20186;-78
2022/03/11 08:33:39;;;;;;;16.48;9.50;;;;;;;0.70;78.16;100341.19;10453196;28;20500;-78
2022/03/11 08:38:40;;;;;;;20.00;11.20;;;;;;;0.72;77.96;100333.22;10453327;28;20033;-77
2022/03/11 08:43:41;;;;;;;18.85;12.10;;;;;;;0.73;78.19;100332.28;10453182;28;20386;-78
2022/03/11 08:48:43;;;;;;;17.73;10.48;;;;;;;-0.29;78.10;100174.56;10470630;28;20041;-78
2022/03/11 08:53:44;;;;;;;17.90;11.43;;;;;;;0.68;77.65;100329.97;10460403;28;20040;-77
2022/03/11 08:58:45;;;;;;;20.42;12.80;;;;;;;0.76;78.60;100309.38;10460722;28;20045;-78
2022/03/11 09:03:45;;;;;;;15.85;9.02;;;;;;;0.73;77.78;100317.44;10459869;28;20457;-78
2022/03/11 09:08:46;;;;;;;17.90;11.23;;;;;;;0.79;78.99;100305.72;10459744;28;20037;-78
2022/03/11 09:13:49;;;;;;;18.23;11.57;;;;;;;0.31;78.70;100242.81;10459914;28;20143;-78
2022/03/11 09:18:49;;;;;;;19.13;11.73;;;;;;;0.58;78.11;100234.84;10459280;28;20132;-78
2022/03/11 09:23:50;;;;;;;20.10;11.02;;;;;;;0.58;77.68;100253.13;10459674;28;20143;-78
2022/03/11 09:28:51;;;;;;;16.33;8.98;;;;;;;0.20;76.33;100158.16;10459102;28;20518;-77
2022/03/11 09:33:52;;;;;;;22.02;12.38;;;;;;;0.91;77.69;100257.78;10459377;28;20532;-78
2022/03/11 09:38:53;;;;;;;17.52;10.57;;;;;;;1.16;76.60;100276.97;10458949;28;20041;-77
2022/03/11 09:43:55;;;;;;;14.60;9.68;;;;;;;1.26;76.97;100275.38;10457811;28;20059;-77
2022/03/11 09:48:56;;;;;;;20.00;11.25;;;;;;;1.07;76.18;100254.91;10458146;28;20128;-78
2022/03/11 09:53:57;;;;;;;16.10;9.98;;;;;;;1.07;76.82;100247.91;10458043;28;20041;-77
2022/03/11 09:58:58;;;;;;;18.27;11.77;;;;;;;0.21;76.97;100099.75;10457186;28;20040;-77
2022/03/11 10:04:02;;;;;;;19.02;11.52;;;;;;;1.18;77.01;100220.97;10457746;28;20056;-78
2022/03/11 10:09:03;;;;;;;17.23;10.50;;;;;;;1.20;76.74;100237.41;10456953;28;20049;-78
2022/03/11 10:14:08;;;;;;;16.38;9.98;;;;;;;0.74;77.23;100146.53;10456517;28;20088;-78
2022/03/11 10:19:10;;;;;;;15.43;10.18;;;;;;;1.01;76.62;100180.31;10457085;28;20056;-77
2022/03/11 10:24:15;;;;;;;14.48;9.35;;;;;;;0.99;75.92;100176.13;10457330;28;20044;-79
2022/03/11 10:29:31;;;;;;;16.23;10.20;;;;;;;1.10;76.32;100194.53;10456478;28;20044;-78
2022/03/11 10:34:34;;;;;;;14.90;10.15;;;;;;;1.07;75.88;100185.09;10456361;28;20041;-77
2022/03/11 10:39:38;;;;;;;17.60;11.25;;;;;;;1.16;77.06;100216.78;10455723;28;20040;-77
2022/03/11 10:44:58;;;;;;;15.35;9.75;;;;;;;0.43;77.23;100088.59;10455386;28;20041;-77
2022/03/11 10:50:06;;;;;;;14.55;10.07;;;;;;;0.19;76.53;100049.38;10456446;28;20047;-77
2022/03/11 10:55:18;;;;;;;15.18;9.93;;;;;;;0.99;77.76;100166.53;10454537;28;20037;-77
2022/03/11 11:00:23;;;;;;;15.90;9.55;;;;;;;1.60;76.77;100192.59;10455491;28;20056;-78
2022/03/11 11:05:25;;;;;;;10.60;7.25;;;;;;;1.60;75.20;100155.94;10455928;28;20083;-77
2022/03/11 11:10:43;;;;;;;11.60;7.95;;;;;;;0.36;74.75;99961.97;10455242;28;20485;-78
2022/03/11 11:15:44;;;;;;;11.25;7.75;;;;;;;1.07;74.74;100045.63;10455185;28;20135;-76
2022/03/11 11:20:47;;;;;;;12.60;7.97;;;;;;;2.17;74.35;100170.78;10455458;28;20551;-77
2022/03/11 11:25:51;;;;;;;13.20;8.52;;;;;;;2.51;73.63;100215.34;10454022;28;20067;-77
2022/03/11 11:30:56;;;;;;;7.40;4.03;;;;;;;1.34;70.27;100032.25;10454709;28;20040;-77
2022/03/11 11:36:02;;;;;;;11.18;6.97;;;;;;;2.25;72.17;100210.34;10454473;28;20044;-77
2022/03/11 11:41:18;;;;;;;13.18;7.85;;;;;;;2.63;72.28;100211.81;10455157;28;20127;-78
2022/03/11 11:46:20;;;;;;;10.90;7.93;;;;;;;1.61;72.19;100063.34;10454421;28;20041;-77
2022/03/11 11:51:23;;;;;;;12.02;8.23;;;;;;;2.65;71.31;100223.00;10453790;28;20514;-78
2022/03/11 11:56:31;;;;;;;8.48;5.32;;;;;;;2.11;70.06;100131.13;10453646;28;20056;-78
2022/03/11 12:01:42;;;;;;;12.18;7.90;;;;;;;2.93;70.56;100223.44;10453575;28;20043;-78
2022/03/11 12:06:59;;;;;;;10.48;7.25;;;;;;;3.10;69.67;100219.47;10454597;28;20135;-77
2022/03/11 12:12:00;;;;;;;10.00;7.47;;;;;;;2.18;68.80;100122.66;10453881;28;20512;-78
2022/03/11 12:17:08;;;;;;;10.32;6.75;;;;;;;2.78;69.15;100235.13;10453228;28;20040;-78
2022/03/11 12:22:32;;;;;;;12.13;7.57;;;;;;;2.65;69.16;100243.13;10453853;28;20045;-78
2022/03/11 12:28:02;;;;;;;11.57;7.10;;;;;;;2.83;68.91;100230.38;10460414;28;20041;-78
2022/03/11 12:33:06;;;;;;;14.45;7.78;;;;;;;2.38;67.62;100186.66;10461232;28;20059;-78
2022/03/11 12:38:15;;;;;;;10.70;7.10;;;;;;;2.62;67.25;100215.34;10461486;28;20036;-76
2022/03/11 12:43:20;;;;;;;10.20;6.72;;;;;;;2.49;67.64;100196.31;10460628;28;20044;-78
2022/03/11 12:48:22;;;;;;;;;;;;;;;2.76;67.45;100224.78;10463616;28;20481;-79
2022/03/11 12:53:23;;;;;;;12.15;7.63;;;;;;;2.34;67.76;100224.53;10472502;28;19924;-78
2022/03/11 12:58:32;;;;;;;12.27;7.53;;;;;;;0.48;67.88;99948.91;10467897;28;20041;-77
2022/03/11 13:03:36;;;;;;;13.77;7.78;;;;;;;1.74;68.59;100205.50;10475354;28;20036;-77
2022/03/11 13:08:42;;;;;;;10.75;7.60;;;;;;;1.39;70.30;100161.00;10477673;28;20051;-78
2022/03/11 13:13:46;;;;;;;14.27;10.23;;;;;;;1.73;70.44;100245.72;10480642;28;20061;-78
2022/03/11 13:18:50;;;;;;;16.15;8.95;;;;;;;0.80;70.67;100095.56;10474115;28;20412;-78
2022/03/11 13:23:50;;;;;;;18.52;11.38;;;;;;;1.54;70.66;100243.63;10471118;28;20045;-77
2022/03/11 13:28:56;;;;;;;18.17;9.55;;;;;;;1.41;71.20;100221.06;10472271;28;20036;-78
2022/03/11 13:33:57;;;;;;;13.15;7.97;;;;;;;1.49;70.89;100234.44;10471890;28;20049;-77
2022/03/11 13:39:18;;;;;;;12.27;7.55;;;;;;;1.06;71.12;100183.44;10469903;28;20047;-78
2022/03/11 13:44:49;;;;;;;13.90;7.85;;;;;;;1.15;71.81;100244.75;10475799;28;20131;-77
2022/03/11 13:50:06;;;;;;;11.68;7.05;;;;;;;0.64;71.97;100195.19;10476268;28;20492;-78
2022/03/11 13:55:14;;;;;;;10.27;6.63;;;;;;;0.08;72.19;100096.31;10470464;28;20059;-77
2022/03/11 14:00:22;;;;;;;9.18;6.47;;;;;;;0.92;72.55;100254.22;10476722;28;20091;-77
2022/03/11 14:05:26;;;;;;;20.20;9.00;;;;;;;0.87;72.77;100246.72;10470981;28;20044;-77
2022/03/11 14:10:28;;;;;;;16.00;8.47;;;;;;;0.29;72.90;100141.00;10484029;28;20420;-77
2022/03/11 14:15:34;;;;;;;9.15;5.68;;;;;;;0.55;73.83;100208.91;10473161;28;20049;-78
2022/03/11 14:20:34;;;;;;;13.77;6.32;;;;;;;-0.95;73.95;100001.56;10476571;28;20036;-77
2022/03/11 14:25:36;;;;;;;17.92;8.25;;;;;;;0.25;75.30;100207.47;10482744;28;20040;-76
2022/03/11 14:30:37;;;;;;;10.55;6.05;;;;;;;-0.49;75.07;100094.97;10481289;28;20045;-77
2022/03/11 14:35:38;;;;;;;7.63;4.60;;;;;;;0.13;75.02;100218.78;10479140;28;20037;-77
2022/03/11 14:40:39;;;;;;;9.95;5.95;;;;;;;0.11;75.49;100244.16;10480059;28;20512;-77
2022/03/11 14:45:40;;;;;;;10.32;6.68;;;;;;;0.31;75.96;100263.72;10493576;28;20055;-77
2022/03/11 14:50:41;;;;;;;14.27;7.68;;;;;;;0.35;75.42;100278.22;10486300;28;20052;-77
2022/03/11 14:55:43;;;;;;;6.20;3.75;;;;;;;0.10;75.70;100252.94;10479500;28;20040;-77
2022/03/11 15:00:45;;;;;;;9.63;5.63;;;;;;;-0.34;76.11;100202.72;10496508;28;20056;-78
2022/03/11 15:05:46;;;;;;;12.48;5.32;;;;;;;0.06;76.64;100286.28;10483355;28;20044;-77
2022/03/11 15:10:47;;;;;;;11.52;7.32;;;;;;;0.10;77.19;100276.44;10476782;28;20147;-77
2022/03/11 15:15:48;;;;;;;11.18;6.65;;;;;;;-0.11;76.98;100273.50;10467811;28;20049;-78
2022/03/11 15:20:49;;;;;;;11.57;6.30;;;;;;;-0.18;77.77;100285.25;10467984;28;20409;-77
2022/03/11 15:25:50;;;;;;;7.10;3.45;;;;;;;-1.38;79.56;100111.25;10468530;28;20044;-77
2022/03/11 15:30:54;;;;;;;8.32;4.68;;;;;;;-0.08;79.92;100330.72;10475790;28;20049;-77
2022/03/11 15:35:56;;;;;;;8.75;5.07;;;;;;;-0.40;81.06;100307.53;10473961;28;20496;-77
2022/03/11 15:40:59;;;;;;;9.35;5.07;;;;;;;-1.10;81.23;100208.53;10482040;28;20055;-78
2022/03/11 15:46:01;;;;;;;8.65;5.28;;;;;;;-1.14;81.52;100191.41;10473070;28;20045;-77
2022/03/11 15:51:02;;;;;;;12.20;5.60;;;;;;;-0.28;81.87;100329.41;10484294;28;20041;-77
2022/03/11 15:56:04;;;;;;;10.80;5.93;;;;;;;-0.34;82.30;100342.84;10473451;28;20111;-77
2022/03/11 16:01:05;;;;;;;9.80;6.20;;;;;;;-1.50;82.88;100164.13;10480818;28;20501;-77
2022/03/11 16:06:05;;;;;;;11.70;7.32;;;;;;;-0.29;82.66;100338.19;10478820;28;20049;-78
2022/03/11 16:11:07;;;;;;;9.65;6.30;;;;;;;-0.48;83.59;100310.66;10479899;28;20143;-76
2022/03/11 16:16:09;;;;;;;11.18;6.90;;;;;;;-0.25;83.44;100344.88;10500286;28;20060;-77
2022/03/11 16:21:13;;;;;;;8.60;5.15;;;;;;;-0.12;83.95;100374.50;10487791;28;20044;-77
2022/03/11 16:26:15;;;;;;;10.40;5.32;;;;;;;0.00;84.28;100378.09;10470513;28;20131;-78
2022/03/11 16:31:16;;;;;;;22.27;5.55;;;;;;;-1.16;83.85;100201.13;10483314;28;20036;-77
2022/03/11 16:36:17;;;;;;;22.63;12.40;;;;;;;-1.10;84.35;100203.34;10479385;28;20049;-77
2022/03/11 16:41:21;;;;;;;10.75;5.65;;;;;;;-0.03;84.32;100381.72;10470605;28;20036;-78
2022/03/11 16:46:22;;;;;;;11.33;6.23;;;;;;;-0.43;84.18;100304.28;10488857;28;20460;-78
2022/03/11 16:51:26;;;;;;;9.20;5.20;;;;;;;0.09;84.70;100406.22;10501579;28;20370;-78
2022/03/11 16:56:27;;;;;;;9.52;4.50;;;;;;;0.02;84.15;100414.53;10482333;28;20048;-78
2022/03/11 17:01:28;;;;;;;6.97;4.50;;;;;;;-0.27;83.97;100398.94;10494279;28;20045;-78
2022/03/11 17:06:29;;;;;;;7.15;4.05;;;;;;;-0.51;84.51;100354.34;10480259;28;20085;-78
2022/03/11 17:11:31;;;;;;;8.05;4.35;;;;;;;-1.90;85.28;100127.50;10472869;28;20048;-79
2022/03/11 17:16:33;;;;;;;7.90;4.32;;;;;;;-1.55;85.08;100194.84;10469767;28;20032;-78
2022/03/11 17:21:35;;;;;;;9.50;5.80;;;;;;;-0.21;84.84;100432.47;10474458;28;20036;-78
2022/03/11 17:26:36;;;;;;;9.48;3.80;;;;;;;-0.56;84.71;100367.69;10473938;28;20040;-77
2022/03/11 17:31:37;;;;;;;8.02;4.13;;;;;;;-1.54;84.16;100222.56;10475595;28;20623;-77
2022/03/11 17:36:38;;;;;;;10.10;4.25;;;;;;;-1.48;84.87;100224.78;10480241;28;20123;-78
2022/03/11 17:41:39;;;;;;;7.32;4.07;;;;;;;-0.63;85.25;100361.16;10498829;28;20097;-78
2022/03/11 17:46:41;;;;;;;9.32;4.55;;;;;;;-1.16;84.94;100269.72;10495017;28;20528;-77
2022/03/11 17:51:43;;;;;;;8.20;4.90;;;;;;;-0.85;85.39;100340.81;10499132;28;20044;-77
2022/03/11 17:56:44;;;;;;;10.68;5.13;;;;;;;-0.92;85.37;100357.78;10497720;28;20040;-77
2022/03/11 18:01:46;;;;;;;10.48;5.22;;;;;;;-1.95;85.52;100205.06;10481921;28;20071;-77
2022/03/11 18:06:47;;;;;;;11.00;4.85;;;;;;;-0.93;85.23;100405.63;10456813;28;20041;-77
2022/03/11 18:11:48;;;;;;;11.85;5.47;;;;;;;-1.89;86.47;100285.41;10457845;28;20064;-77
2022/03/11 18:16:53;;;;;;;8.20;3.95;;;;;;;-2.42;86.83;100221.72;10479896;28;20052;-77
2022/03/11 18:21:54;;;;;;;10.50;6.25;;;;;;;-1.46;87.10;100426.16;10498891;28;20044;-76
2022/03/11 18:26:54;;;;;;;11.07;3.60;;;;;;;-2.19;86.81;100318.41;10496601;28;20412;-76
2022/03/11 18:31:55;;;;;;;6.03;3.75;;;;;;;-1.84;87.72;100394.50;10498203;28;20049;-76
2022/03/11 18:36:56;;;;;;;13.23;6.28;;;;;;;-2.19;87.35;100355.69;10497493;28;20051;-76
2022/03/11 18:41:58;;;;;;;10.55;5.65;;;;;;;-1.99;87.37;100398.81;10492833;28;20041;-77
2022/03/11 18:46:59;;;;;;;7.85;4.43;;;;;;;-2.03;86.86;100397.31;10484346;28;20063;-76
2022/03/11 18:52:00;;;;;;;11.23;5.95;;;;;;;-1.88;86.97;100417.28;10478232;28;20037;-76
2022/03/11 18:57:01;;;;;;;11.38;6.25;;;;;;;-2.84;86.79;100257.00;10497334;28;20049;-76
2022/03/11 19:02:02;;;;;;;13.88;5.93;;;;;;;-2.12;86.23;100369.19;10497260;28;20036;-75
2022/03/11 19:07:03;;;;;;;14.90;6.38;;;;;;;-2.79;86.07;100282.72;10497598;28;20041;-76
2022/03/11 19:12:05;;;;;;;11.02;6.85;;;;;;;-2.47;86.47;100372.00;10496788;28;20048;-76
2022/03/11 19:17:06;;;;;;;10.82;6.40;;;;;;;-2.04;85.59;100452.88;10497419;28;20055;-77
2022/03/11 19:22:07;;;;;;;13.35;6.57;;;;;;;-2.36;85.88;100390.47;10496575;28;20048;-75
2022/03/11 19:27:08;;;;;;;8.35;5.07;;;;;;;-2.16;86.39;100440.56;10497427;28;20127;-76
2022/03/11 19:32:09;;;;;;;10.70;5.70;;;;;;;-3.44;86.14;100220.41;10468673;28;20491;-77
2022/03/11 19:49:11;;;;;;;12.93;7.93;;;;;;;-1.94;86.77;100448.03;10658865;27;20401;-75
2022/03/11 19:54:14;;;;;;;7.85;4.75;;;;;;;-2.38;85.00;100379.28;10618000;27;20637;-75
2022/03/11 19:59:16;;;;;;;15.93;8.88;;;;;;;-2.19;85.13;100430.31;10614266;28;20551;-76
2022/03/11 20:04:17;;;;;;;17.95;7.95;;;;;;;-2.61;85.13;100400.50;10614989;28;20035;-75
2022/03/11 20:09:17;;;;;;;12.55;7.78;;;;;;;-2.73;85.41;100380.38;10614854;28;20031;-74
2022/03/11 20:14:19;;;;;;;22.52;9.38;;;;;;;-2.35;84.87;100474.53;10613139;28;20044;-75
2022/03/11 20:19:20;;;;;;;15.55;7.68;;;;;;;-2.33;85.13;100481.34;10614407;28;20067;-75
2022/03/11 20:24:23;;;;;;;17.33;8.93;;;;;;;-3.13;85.32;100331.34;10594535;28;20063;-74
2022/03/11 20:29:31;;;;;;;22.42;10.63;;;;;;;-2.47;85.54;100424.00;10601859;28;20048;-75
2022/03/11 20:34:32;;;;;;;21.85;10.23;;;;;;;-2.10;85.31;100485.28;10578769;28;20406;-75
2022/03/11 20:39:34;;;;;;;17.40;8.88;;;;;;;-2.79;85.56;100366.75;10607973;28;20047;-75
2022/03/11 20:44:36;;;;;;;15.82;8.32;;;;;;;-2.15;85.28;100465.69;10614097;28;20516;-75
2022/03/11 20:49:36;;;;;;;10.43;4.20;;;;;;;-2.25;84.93;100457.50;10589550;28;20050;-78
2022/03/11 20:54:38;;;;;;;16.05;8.35;;;;;;;-2.53;85.60;100440.78;10585387;28;20405;-75
2022/03/11 20:59:38;;;;;;;15.15;6.95;;;;;;;-2.33;85.60;100481.34;10586540;28;20047;-75
2022/03/11 21:04:39;;;;;;;16.15;7.40;;;;;;;-2.42;85.86;100466.25;10585419;28;20051;-75
2022/03/11 21:09:40;;;;;;;11.95;6.47;;;;;;;-3.13;84.95;100356.50;10585943;28;20074;-76
2022/03/11 21:14:43;;;;;;;14.68;7.65;;;;;;;-2.36;85.55;100491.09;10567628;28;20067;-75
2022/03/11 21:19:43;;;;;;;12.90;6.88;;;;;;;-2.58;85.48;100452.34;10584445;28;20067;-75
2022/03/11 21:24:44;;;;;;;11.68;6.68;;;;;;;-3.13;85.24;100356.50;10584202;28;20078;-75
2022/03/11 21:29:45;;;;;;;12.93;7.22;;;;;;;-2.60;85.59;100454.22;10585292;28;20052;-75
2022/03/11 21:34:48;;;;;;;16.83;7.72;;;;;;;-2.41;85.83;100486.13;10584946;28;20105;-76
2022/03/11 21:39:49;;;;;;;13.38;7.80;;;;;;;-2.49;85.59;100457.06;10583709;28;20042;-76
2022/03/11 21:44:50;;;;;;;14.68;7.70;;;;;;;-2.17;85.75;100483.97;10581644;28;20056;-75
2022/03/11 21:49:52;;;;;;;15.68;6.45;;;;;;;-2.70;85.81;100382.81;10565118;28;20051;-75
2022/03/11 21:54:52;;;;;;;10.98;6.45;;;;;;;-2.25;85.01;100475.72;10583056;28;20036;-76
2022/03/11 21:59:53;;;;;;;12.07;6.65;;;;;;;-2.35;85.86;100457.16;10582128;28;20043;-76
2022/03/11 22:04:54;;;;;;;9.77;5.90;;;;;;;-3.90;85.50;100187.34;10583150;28;20092;-75
2022/03/11 22:09:57;;;;;;;10.93;6.57;;;;;;;-2.00;85.25;100490.03;10582292;28;20043;-76
2022/03/11 22:14:58;;;;;;;14.10;7.63;;;;;;;-2.08;85.71;100482.63;10582126;28;20039;-76
2022/03/11 22:20:01;;;;;;;11.40;5.88;;;;;;;-1.92;85.74;100509.47;10583561;28;20043;-76
2022/03/11 22:25:03;;;;;;;11.23;6.00;;;;;;;-2.39;85.37;100428.81;10582412;28;20050;-76
2022/03/11 22:30:05;;;;;;;10.70;6.07;;;;;;;-2.79;85.36;100386.72;10581597;28;20036;-76
2022/03/11 22:35:06;;;;;;;16.55;9.38;;;;;;;-2.13;85.73;100508.06;10564850;28;20047;-76
2022/03/11 22:40:07;;;;;;;9.40;5.93;;;;;;;-2.82;85.87;100392.94;10565481;28;20141;-76
2022/03/11 22:45:09;;;;;;;12.05;6.57;;;;;;;-2.52;85.53;100462.44;10558334;28;20064;-76
2022/03/11 22:50:27;;;;;;;12.65;5.90;;;;;;;-2.20;86.25;100535.34;10539328;28;20040;-75
2022/03/11 22:55:30;;;;;;;11.70;5.90;;;;;;;-2.34;86.78;100518.69;10538417;28;20048;-76
2022/03/11 23:00:34;;;;;;;10.55;5.70;;;;;;;-2.74;85.83;100451.50;10538292;28;20097;-76
2022/03/11 23:05:35;;;;;;;;;;;;;;;-1.88;85.66;100568.28;10538668;28;20036;-76
2022/03/11 23:10:36;;;;;;;9.10;5.28;;;;;;;-2.09;85.94;100546.03;10519865;28;20010;-76